Time;durP1;ratioP1;P1;durP2;ratioP2;P2;SDS_P1;SDS_P2;PMS_P1;PMS_P2;Temp;Humidity;BMP_temperature;BMP_pressure;BME280_temperature;BME280_humidity;BME280_pressure;Samples;Min_cycle;Max_cycle;Signal;HPM_P1;HPM_P2
2022/08/31 00:04:04;;;;;;;11.47;5.60;;;;;;;24.97;64.06;100545.72;5064852;28;20499;-64
2022/08/31 00:06:30;;;;;;;10.50;5.40;;;;;;;24.98;63.79;100553.16;5052874;28;20422;-64
2022/08/31 00:08:56;;;;;;;9.37;5.00;;;;;;;24.98;64.07;100558.94;5069214;28;20860;-64
2022/08/31 00:11:26;;;;;;;14.60;5.70;;;;;;;24.99;63.95;100554.00;5066549;28;20516;-64
2022/08/31 00:13:54;;;;;;;10.20;5.90;;;;;;;24.97;64.18;100544.91;5056787;28;20259;-64
2022/08/31 00:16:19;;;;;;;8.93;5.40;;;;;;;24.97;63.83;100548.63;5058299;28;20842;-64
2022/08/31 00:18:45;;;;;;;8.63;5.10;;;;;;;24.99;63.80;100548.22;5068464;28;20458;-64
2022/08/31 00:21:11;;;;;;;6.80;4.77;;;;;;;25.00;63.83;100544.06;5053264;28;20188;-65
2022/08/31 00:23:36;;;;;;;9.83;5.10;;;;;;;25.00;64.09;100538.28;5053267;28;20533;-64
2022/08/31 00:26:02;;;;;;;12.80;5.67;;;;;;;24.99;63.98;100549.00;5055737;28;20549;-65
2022/08/31 00:28:27;;;;;;;10.00;5.47;;;;;;;24.99;63.60;100534.56;5073191;28;20167;-65
2022/08/31 00:30:53;;;;;;;10.30;5.03;;;;;;;24.99;63.96;100531.69;5072467;28;20548;-64
2022/08/31 00:33:18;;;;;;;7.43;4.93;;;;;;;25.00;64.05;100536.25;5065214;28;20214;-64
2022/08/31 00:35:44;;;;;;;10.60;5.20;;;;;;;25.00;63.97;100533.34;5053474;28;20550;-64
2022/08/31 00:38:09;;;;;;;10.60;6.07;;;;;;;25.00;63.87;100529.63;5052094;28;20663;-65
2022/08/31 00:40:35;;;;;;;8.97;5.63;;;;;;;24.99;63.94;100523.00;5053156;28;20175;-64
2022/08/31 00:43:00;;;;;;;9.07;4.90;;;;;;;24.89;64.49;100521.00;5045653;28;20188;-64
2022/08/31 00:45:26;;;;;;;6.90;4.97;;;;;;;24.92;65.20;100519.34;5071867;28;20611;-65
2022/08/31 00:47:52;;;;;;;17.33;5.47;;;;;;;24.92;64.52;100520.16;5072418;28;20548;-65
2022/08/31 00:50:19;;;;;;;10.30;5.87;;;;;;;24.91;64.59;100518.53;5072868;28;20175;-65
2022/08/31 00:52:52;;;;;;;12.90;5.73;;;;;;;24.82;65.31;100521.03;5067670;28;20551;-65
2022/08/31 00:55:32;;;;;;;9.17;4.83;;;;;;;24.86;65.22;100516.06;5071562;28;20420;-65
2022/08/31 00:57:59;;;;;;;9.30;6.00;;;;;;;24.84;65.54;100518.53;5064416;28;20543;-65
2022/08/31 01:00:39;;;;;;;12.30;6.40;;;;;;;24.84;65.42;100509.88;5051142;28;20929;-64
2022/08/31 01:03:05;;;;;;;8.50;5.70;;;;;;;24.89;64.96;100505.75;5052857;28;20438;-65
2022/08/31 01:05:30;;;;;;;12.70;5.93;;;;;;;24.88;64.46;100504.09;5064808;28;20436;-64
2022/08/31 01:07:56;;;;;;;10.83;6.30;;;;;;;24.69;65.57;100511.16;5071910;28;20904;-64
2022/08/31 01:10:22;;;;;;;10.10;5.47;;;;;;;24.76;65.80;100508.28;5071260;28;20182;-64
2022/08/31 01:12:50;;;;;;;10.00;5.73;;;;;;;24.65;66.51;100501.72;5070336;28;20686;-64
2022/08/31 01:15:16;;;;;;;12.97;5.87;;;;;;;24.75;65.45;100502.91;5072011;28;20433;-64
2022/08/31 01:17:42;;;;;;;10.03;5.47;;;;;;;24.72;65.91;100504.56;5071214;28;20465;-64
2022/08/31 01:20:13;;;;;;;9.27;6.00;;;;;;;24.63;66.51;100501.28;5051077;28;20192;-63
2022/08/31 01:23:07;;;;;;;10.47;6.13;;;;;;;24.49;67.45;100500.50;5051684;28;20430;-64
2022/08/31 01:25:34;;;;;;;11.23;5.67;;;;;;;24.48;67.02;100499.66;5051237;28;20452;-63
2022/08/31 01:28:01;;;;;;;10.90;6.50;;;;;;;24.49;66.97;100506.28;5052139;28;20414;-63
2022/08/31 01:30:26;;;;;;;10.37;5.60;;;;;;;24.08;69.36;100505.94;5070849;28;20962;-63
2022/08/31 01:32:51;;;;;;;9.80;6.40;;;;;;;24.42;67.57;100509.16;5061004;28;20438;-63
2022/08/31 01:35:17;;;;;;;8.70;5.30;;;;;;;24.61;66.54;100505.84;5072153;28;20179;-63
2022/08/31 01:37:42;;;;;;;10.60;5.80;;;;;;;24.63;66.52;100506.28;5053549;28;20305;-63
2022/08/31 01:40:09;;;;;;;7.97;5.20;;;;;;;24.57;66.77;100500.06;5069559;28;20529;-64
2022/08/31 01:42:34;;;;;;;8.90;5.33;;;;;;;24.67;66.04;100502.13;5070321;28;20193;-64
2022/08/31 01:45:00;;;;;;;9.77;5.80;;;;;;;24.74;65.71;100493.41;5070040;28;20807;-64
2022/08/31 01:47:25;;;;;;;7.27;5.10;;;;;;;24.76;65.19;100496.72;5068445;28;20175;-64
2022/08/31 01:49:50;;;;;;;8.97;5.30;;;;;;;24.62;66.06;100496.78;5070207;28;20187;-64
2022/08/31 01:52:16;;;;;;;8.67;5.43;;;;;;;24.52;67.09;100496.75;5068985;28;20186;-64
2022/08/31 01:54:41;;;;;;;11.60;5.33;;;;;;;24.66;66.24;100493.88;5068629;28;20187;-64
2022/08/31 01:57:09;;;;;;;8.43;5.13;;;;;;;24.74;65.99;100496.31;5061432;28;20204;-64
2022/08/31 01:59:34;;;;;;;8.73;5.77;;;;;;;24.78;65.21;100502.09;5051459;28;20260;-64
2022/08/31 02:02:00;;;;;;;8.90;5.23;;;;;;;24.79;65.10;100498.75;5056653;28;20528;-64
2022/08/31 02:04:26;;;;;;;7.90;4.80;;;;;;;24.80;64.65;100488.88;5056402;28;20180;-64
2022/08/31 02:06:52;;;;;;;6.13;4.00;;;;;;;24.82;64.72;100488.44;5050220;28;20183;-64
2022/08/31 02:09:19;;;;;;;7.60;4.43;;;;;;;24.82;64.72;100492.16;5050183;28;20414;-64
2022/08/31 02:11:45;;;;;;;8.80;5.27;;;;;;;24.82;64.51;100486.38;5065742;28;20470;-64
2022/08/31 02:14:11;;;;;;;9.80;5.00;;;;;;;24.83;64.46;100485.13;5063247;28;20429;-64
2022/08/31 02:16:36;;;;;;;7.50;4.60;;;;;;;24.83;64.60;100478.53;5071189;28;20432;-64
2022/08/31 02:19:02;;;;;;;8.60;5.30;;;;;;;24.82;64.91;100480.59;5069149;28;20175;-64
2022/08/31 02:21:27;;;;;;;9.10;4.83;;;;;;;24.80;65.24;100468.66;5071293;28;20187;-64
2022/08/31 02:23:53;;;;;;;7.67;5.00;;;;;;;24.81;64.55;100473.19;5070155;28;20182;-64
2022/08/31 02:26:18;;;;;;;7.70;4.87;;;;;;;24.80;64.50;100468.66;5071258;28;20185;-65
2022/08/31 02:28:44;;;;;;;8.10;5.03;;;;;;;24.82;64.34;100466.16;5064066;28;20200;-64
2022/08/31 02:31:09;;;;;;;5.97;4.40;;;;;;;24.82;64.25;100463.28;5050244;28;20183;-64
2022/08/31 02:33:35;;;;;;;5.33;4.07;;;;;;;24.83;64.69;100469.88;5062414;28;20225;-64
2022/08/31 02:36:00;;;;;;;6.73;4.43;;;;;;;24.84;63.99;100463.66;5070637;28;20187;-64
2022/08/31 02:38:26;;;;;;;8.60;4.40;;;;;;;24.84;64.39;100455.00;5070841;28;20194;-64
2022/08/31 02:40:51;;;;;;;8.10;4.90;;;;;;;24.84;64.39;100455.00;5071184;28;20182;-64
2022/08/31 02:43:18;;;;;;;8.13;4.70;;;;;;;24.85;64.38;100450.06;5061775;28;20182;-64
2022/08/31 02:45:44;;;;;;;7.00;4.93;;;;;;;24.85;64.07;100447.16;5053368;28;20222;-64
2022/08/31 02:48:10;;;;;;;6.50;4.57;;;;;;;24.85;64.14;100441.38;5070670;28;20916;-64
2022/08/31 02:50:43;;;;;;;10.53;5.60;;;;;;;24.84;64.32;100431.88;5070897;28;20201;-64
2022/08/31 02:53:09;;;;;;;11.70;4.37;;;;;;;24.83;63.99;100423.66;5058235;28;20921;-64
2022/08/31 02:55:35;;;;;;;6.37;4.87;;;;;;;24.81;64.38;100409.66;5069775;28;20425;-64
2022/08/31 02:58:00;;;;;;;8.37;4.80;;;;;;;24.63;65.45;100408.91;5052255;28;20453;-64
2022/08/31 03:00:26;;;;;;;8.50;4.63;;;;;;;24.70;65.42;100403.09;5050846;28;20179;-64
2022/08/31 03:02:51;;;;;;;6.57;5.03;;;;;;;24.24;67.34;100393.78;5061452;28;20175;-64
2022/08/31 03:05:17;;;;;;;7.00;4.10;;;;;;;24.36;66.43;100384.69;5050580;28;20509;-64
2022/08/31 03:07:44;;;;;;;6.90;3.67;;;;;;;24.25;67.23;100381.00;5052169;28;20244;-64
2022/08/31 03:10:10;;;;;;;8.60;4.73;;;;;;;24.15;67.04;100370.34;5058412;28;20175;-64
2022/08/31 03:12:36;;;;;;;8.20;4.00;;;;;;;24.15;67.57;100358.81;5073969;28;20518;-64
2022/08/31 03:15:02;;;;;;;10.47;4.20;;;;;;;23.71;69.20;100360.53;5055079;28;20456;-64
2022/08/31 03:17:27;;;;;;;6.60;4.07;;;;;;;23.78;68.70;100355.56;5053581;28;20612;-64
2022/08/31 03:19:59;;;;;;;10.83;3.73;;;;;;;24.04;67.57;100363.75;5070247;28;20421;-64
2022/08/31 03:22:26;;;;;;;5.07;3.30;;;;;;;24.11;67.07;100363.75;5074321;28;20187;-64
2022/08/31 03:24:51;;;;;;;7.57;3.40;;;;;;;24.09;67.32;100388.50;5074616;28;20405;-64
2022/08/31 03:27:17;;;;;;;4.87;3.50;;;;;;;24.35;66.11;100391.69;5072322;28;21042;-64
2022/08/31 03:29:42;;;;;;;7.60;4.00;;;;;;;24.41;65.42;100401.56;5068197;28;20212;-64
2022/08/31 03:32:08;;;;;;;5.47;3.27;;;;;;;24.50;65.01;100410.59;5074226;28;20187;-64
2022/08/31 03:34:33;;;;;;;5.53;3.60;;;;;;;24.54;64.85;100407.69;5056279;28;20183;-64
2022/08/31 03:36:59;;;;;;;5.97;3.43;;;;;;;24.57;64.37;100404.78;5054427;28;20666;-64
2022/08/31 03:39:24;;;;;;;4.40;3.30;;;;;;;24.59;64.28;100408.09;5054188;28;20567;-63
2022/08/31 03:41:50;;;;;;;4.73;3.40;;;;;;;24.63;64.25;100405.22;5058709;28;20506;-64
2022/08/31 03:44:15;;;;;;;3.90;3.13;;;;;;;24.50;64.70;100404.00;5072468;28;20179;-64
2022/08/31 03:46:44;;;;;;;5.80;3.90;;;;;;;24.52;64.49;100396.56;5073523;28;20513;-64
2022/08/31 03:49:11;;;;;;;4.53;3.27;;;;;;;24.43;64.60;100393.28;5073193;28;20308;-64
2022/08/31 03:51:36;;;;;;;5.17;3.30;;;;;;;24.42;64.06;100385.88;5072963;28;20491;-64
2022/08/31 03:54:02;;;;;;;7.20;3.50;;;;;;;24.43;64.68;100375.16;5072740;28;20449;-64
2022/08/31 03:56:27;;;;;;;4.67;2.97;;;;;;;24.48;64.07;100364.00;5073158;28;20183;-64
2022/08/31 03:58:53;;;;;;;5.47;2.93;;;;;;;24.14;64.95;100359.22;5073843;28;20237;-64
2022/08/31 04:01:18;;;;;;;5.87;3.00;;;;;;;24.27;64.63;100360.38;5073609;28;20233;-64
2022/08/31 04:03:43;;;;;;;4.07;2.60;;;;;;;24.27;64.51;100360.38;5064195;28;20184;-64
2022/08/31 04:06:09;;;;;;;5.83;3.17;;;;;;;24.31;64.05;100361.19;5067615;28;20179;-64
2022/08/31 04:08:35;;;;;;;4.70;3.00;;;;;;;24.31;63.92;100367.78;5073410;28;20210;-64
2022/08/31 04:11:05;;;;;;;14.27;3.30;;;;;;;24.32;63.83;100378.09;5071182;28;20198;-63
2022/08/31 04:13:30;;;;;;;6.47;3.17;;;;;;;24.30;63.29;100395.00;5055950;28;20223;-64
2022/08/31 04:15:59;;;;;;;5.40;2.90;;;;;;;23.63;65.25;100426.00;5053044;28;20432;-63
2022/08/31 04:18:24;;;;;;;5.03;2.53;;;;;;;24.09;64.55;100423.91;5052633;28;20256;-63
2022/08/31 04:20:50;;;;;;;4.27;2.87;;;;;;;24.29;63.40;100422.19;5057274;28;20438;-64
2022/08/31 04:23:15;;;;;;;3.97;2.80;;;;;;;24.21;63.63;100414.00;5053342;28;20245;-63
2022/08/31 04:25:41;;;;;;;4.50;2.73;;;;;;;23.82;64.51;100418.97;5069367;28;20179;-63
2022/08/31 04:28:07;;;;;;;3.53;2.80;;;;;;;24.03;63.71;100419.81;5071231;28;20592;-63
2022/08/31 04:30:36;;;;;;;6.50;3.67;;;;;;;23.72;64.53;100431.34;5062763;28;20429;-63
2022/08/31 04:33:02;;;;;;;8.17;2.87;;;;;;;23.71;64.84;100455.66;5072867;28;20613;-63
2022/08/31 04:35:27;;;;;;;3.83;2.30;;;;;;;23.98;63.45;100449.06;5073606;28;20433;-63
2022/08/31 04:37:53;;;;;;;4.10;2.93;;;;;;;24.20;62.59;100458.50;5073764;28;20241;-63
2022/08/31 04:40:19;;;;;;;5.00;2.77;;;;;;;24.30;62.20;100452.72;5073118;28;20691;-63
2022/08/31 04:42:47;;;;;;;3.63;2.30;;;;;;;24.38;62.06;100456.41;5062149;28;20179;-63
2022/08/31 04:45:13;;;;;;;4.77;2.70;;;;;;;24.40;62.15;100463.41;5053471;28;20186;-63
2022/08/31 04:47:40;;;;;;;4.17;2.60;;;;;;;24.42;61.69;100471.63;5061156;28;20802;-63
2022/08/31 04:50:07;;;;;;;6.80;2.63;;;;;;;24.44;61.79;100469.19;5073144;28;20417;-63
2022/08/31 04:52:32;;;;;;;4.43;2.77;;;;;;;24.45;61.67;100477.41;5070139;28;20457;-63
2022/08/31 04:54:57;;;;;;;5.27;2.70;;;;;;;24.48;61.55;100488.13;5070643;28;20786;-64
2022/08/31 04:57:23;;;;;;;5.43;2.70;;;;;;;24.48;61.75;100488.13;5072795;28;20684;-63
2022/08/31 04:59:48;;;;;;;5.10;3.00;;;;;;;24.48;61.54;100490.19;5072828;28;20171;-63
2022/08/31 05:02:14;;;;;;;8.03;2.77;;;;;;;24.48;61.35;100488.13;5072424;28;20183;-64
2022/08/31 05:04:39;;;;;;;4.90;3.30;;;;;;;24.48;61.25;100491.00;5051236;28;20180;-63
2022/08/31 05:07:05;;;;;;;3.53;2.67;;;;;;;24.49;61.76;100488.94;5052793;28;20562;-63
2022/08/31 05:09:31;;;;;;;6.80;3.13;;;;;;;24.48;61.81;100487.31;5052196;28;20654;-63
2022/08/31 05:11:56;;;;;;;4.83;2.60;;;;;;;24.48;61.76;100498.84;5068796;28;20214;-64
2022/08/31 05:14:22;;;;;;;4.90;2.97;;;;;;;24.47;61.88;100505.84;5063094;28;20179;-63
2022/08/31 05:16:47;;;;;;;4.10;3.03;;;;;;;24.47;61.95;100506.69;5050350;28;20183;-64
2022/08/31 05:19:13;;;;;;;4.57;3.10;;;;;;;24.45;62.04;100503.41;5052008;28;20259;-63
2022/08/31 05:21:39;;;;;;;5.40;3.20;;;;;;;24.46;62.10;100507.94;5070236;28;20179;-63
2022/08/31 05:24:12;;;;;;;7.20;3.73;;;;;;;24.47;62.04;100506.69;5072089;28;20182;-63
2022/08/31 05:26:39;;;;;;;3.90;2.83;;;;;;;24.48;62.09;100505.44;5064600;28;20523;-63
2022/08/31 05:29:06;;;;;;;5.40;3.03;;;;;;;24.50;62.02;100507.91;5051652;28;20419;-63
2022/08/31 05:31:32;;;;;;;4.53;3.07;;;;;;;24.50;61.88;100508.75;5071125;28;20479;-64
2022/08/31 05:33:57;;;;;;;4.57;3.17;;;;;;;24.51;62.05;100513.28;5062328;28;20512;-64
2022/08/31 05:36:23;;;;;;;7.30;2.53;;;;;;;24.52;62.08;100523.56;5070646;28;20171;-64
2022/08/31 05:38:49;;;;;;;4.90;3.20;;;;;;;24.52;62.02;100523.56;5071329;28;20272;-64
2022/08/31 05:41:14;;;;;;;8.10;3.37;;;;;;;24.54;62.06;100520.28;5071792;28;20500;-64
2022/08/31 05:43:40;;;;;;;4.40;3.37;;;;;;;24.54;62.45;100523.97;5069854;28;20184;-64
2022/08/31 05:46:07;;;;;;;5.90;3.63;;;;;;;24.53;62.29;100522.34;5071659;28;20642;-64
2022/08/31 05:48:33;;;;;;;3.70;2.67;;;;;;;24.54;62.77;100529.75;5062099;28;20655;-64
2022/08/31 05:51:00;;;;;;;4.30;3.40;;;;;;;24.54;62.45;100521.09;5050575;28;20421;-64
2022/08/31 05:53:26;;;;;;;5.30;3.30;;;;;;;24.55;62.47;100534.31;5068390;28;20457;-64
2022/08/31 05:56:16;;;;;;;8.13;3.40;;;;;;;24.54;62.70;100534.72;5070302;28;21188;-64
2022/08/31 05:58:42;;;;;;;3.90;3.20;;;;;;;24.55;62.36;100537.19;5071458;28;20222;-64
2022/08/31 06:01:18;;;;;;;5.73;3.40;;;;;;;24.54;62.69;100535.53;5071592;28;20445;-64
2022/08/31 06:03:44;;;;;;;5.40;3.10;;;;;;;24.55;62.76;100536.34;5065670;28;20221;-64
2022/08/31 06:06:10;;;;;;;3.50;2.87;;;;;;;24.55;62.73;100534.31;5071720;28;20417;-64
2022/08/31 06:08:36;;;;;;;5.63;2.70;;;;;;;24.55;62.51;100537.19;5069743;28;20179;-64
2022/08/31 06:11:02;;;;;;;6.30;3.77;;;;;;;24.56;62.52;100527.28;5069422;28;21105;-64
2022/08/31 06:13:28;;;;;;;7.00;3.33;;;;;;;24.58;62.69;100538.44;5057685;28;20535;-64
2022/08/31 06:15:58;;;;;;;5.90;3.73;;;;;;;24.57;62.58;100530.97;5071289;28;20418;-64
2022/08/31 06:18:24;;;;;;;5.40;3.37;;;;;;;24.57;62.48;100536.75;5069350;28;20237;-64
2022/08/31 06:21:00;;;;;;;4.90;3.70;;;;;;;24.57;62.36;100537.59;5051437;28;20496;-64
2022/08/31 06:23:25;;;;;;;5.20;3.47;;;;;;;24.56;62.63;100538.84;5065418;28;20429;-64
2022/08/31 06:25:51;;;;;;;6.47;3.20;;;;;;;24.57;62.65;100539.63;5069548;28;20428;-64
2022/08/31 06:28:16;;;;;;;4.70;3.20;;;;;;;24.56;62.77;100535.94;5070859;28;20498;-64
2022/08/31 06:30:41;;;;;;;4.73;3.43;;;;;;;24.58;62.63;100532.66;5070517;28;20657;-64
2022/08/31 06:33:07;;;;;;;5.97;3.70;;;;;;;24.58;62.72;100549.97;5067488;28;20669;-64
2022/08/31 06:35:32;;;;;;;5.47;3.33;;;;;;;24.57;62.54;100536.75;5068881;28;20171;-64
2022/08/31 06:37:58;;;;;;;4.83;3.13;;;;;;;24.57;62.38;100540.47;5069601;28;20748;-64
2022/08/31 06:40:28;;;;;;;7.50;3.93;;;;;;;24.55;62.70;100540.09;5070432;28;20210;-64
2022/08/31 06:42:54;;;;;;;6.07;3.43;;;;;;;24.57;62.90;100542.53;5050895;28;20855;-64
2022/08/31 06:45:19;;;;;;;5.60;3.60;;;;;;;24.56;62.59;100535.09;5069694;28;20441;-64
2022/08/31 06:47:46;;;;;;;7.53;4.33;;;;;;;24.56;62.70;100544.59;5058021;28;20199;-64
2022/08/31 06:50:12;;;;;;;4.70;3.33;;;;;;;24.55;62.61;100539.25;5060485;28;20638;-64
2022/08/31 06:52:37;;;;;;;6.87;3.60;;;;;;;24.55;63.05;100537.19;5068645;28;20920;-64
2022/08/31 06:55:03;;;;;;;5.63;3.20;;;;;;;24.55;62.63;100537.19;5070152;28;20519;-64
2022/08/31 06:57:28;;;;;;;5.20;3.13;;;;;;;24.55;62.73;100537.19;5070953;28;20211;-64
2022/08/31 06:59:54;;;;;;;4.70;3.30;;;;;;;24.55;62.88;100534.31;5070818;28;20237;-64
2022/08/31 07:02:19;;;;;;;7.03;4.23;;;;;;;24.56;62.88;100535.09;5062675;28;20815;-64
2022/08/31 07:04:45;;;;;;;7.10;3.97;;;;;;;24.56;62.54;100541.72;5062066;28;20741;-64
2022/08/31 07:07:10;;;;;;;9.13;4.10;;;;;;;24.55;62.95;100537.19;5070910;28;20679;-64
2022/08/31 07:09:38;;;;;;;4.90;3.47;;;;;;;24.55;63.04;100542.97;5069280;28;20630;-64
2022/08/31 07:12:03;;;;;;;7.07;3.13;;;;;;;24.56;62.66;100535.09;5049269;28;20211;-64
2022/08/31 07:14:29;;;;;;;10.10;3.40;;;;;;;24.56;62.63;100538.00;5059915;28;20828;-64
2022/08/31 07:16:55;;;;;;;5.70;3.30;;;;;;;24.42;63.46;100540.91;5049360;28;20256;-64
2022/08/31 07:19:22;;;;;;;6.20;3.53;;;;;;;24.41;64.25;100548.75;5063936;28;20191;-64
2022/08/31 07:21:49;;;;;;;7.53;4.27;;;;;;;24.70;65.07;100555.31;5059163;28;20434;-64
2022/08/31 07:24:16;;;;;;;8.83;5.60;;;;;;;24.80;64.56;100549.53;5064347;28;20843;-64
2022/08/31 07:26:44;;;;;;;8.67;5.30;;;;;;;25.00;65.82;100541.19;5052484;28;20828;-64
2022/08/31 07:29:10;;;;;;;9.93;5.47;;;;;;;24.95;65.42;100548.22;5049089;28;20805;-64
2022/08/31 07:31:42;;;;;;;9.37;5.07;;;;;;;24.80;65.47;100535.09;5069847;28;20444;-64
2022/08/31 07:34:09;;;;;;;8.03;4.57;;;;;;;24.76;65.05;100548.72;5074892;28;20198;-64
2022/08/31 07:42:08;;;;;;;8.30;4.40;;;;;;;24.75;65.80;100549.13;5049006;28;20434;-64
2022/08/31 07:42:08;;;;;;;8.97;4.50;;;;;;;24.76;65.34;100551.59;5066176;28;20436;-65
2022/08/31 07:44:33;;;;;;;8.60;4.80;;;;;;;24.70;65.98;100552.44;5066693;28;20429;-65
2022/08/31 07:47:00;;;;;;;6.27;4.40;;;;;;;24.80;65.19;100555.31;5068851;28;20930;-64
2022/08/31 07:49:25;;;;;;;5.70;4.30;;;;;;;24.87;65.66;100557.31;5070329;28;20207;-65
2022/08/31 07:51:51;;;;;;;6.53;4.00;;;;;;;24.87;65.36;100557.31;5069959;28;20433;-64
2022/08/31 07:54:19;;;;;;;6.00;4.00;;;;;;;24.90;64.78;100557.34;5071857;28;20198;-64
2022/08/31 07:56:46;;;;;;;9.67;4.37;;;;;;;24.90;65.10;100563.09;5066981;28;22118;-64
2022/08/31 07:59:13;;;;;;;5.27;3.33;;;;;;;24.90;64.30;100573.81;5056051;28;20492;-64
2022/08/31 08:01:40;;;;;;;8.23;4.77;;;;;;;24.78;64.25;100572.19;5045310;28;20437;-63
2022/08/31 08:04:06;;;;;;;10.57;4.90;;;;;;;24.56;66.68;100569.75;5064262;28;20788;-63
2022/08/31 08:06:32;;;;;;;7.63;4.60;;;;;;;24.59;65.69;100569.78;5057871;28;20429;-64
2022/08/31 08:09:04;;;;;;;7.90;4.50;;;;;;;24.51;65.80;100568.13;5052610;28;20913;-65
2022/08/31 08:11:31;;;;;;;5.93;4.57;;;;;;;24.21;66.74;100570.63;5060702;28;20251;-65
2022/08/31 08:13:56;;;;;;;9.40;4.97;;;;;;;24.20;66.86;100569.00;5054985;28;20445;-65
2022/08/31 08:16:22;;;;;;;7.40;4.30;;;;;;;24.42;66.16;100573.50;5063049;28;20802;-65
2022/08/31 08:18:47;;;;;;;7.63;4.30;;;;;;;24.52;65.25;100577.59;5071804;28;20214;-65
2022/08/31 08:21:13;;;;;;;16.27;4.13;;;;;;;24.57;64.83;100577.16;5072634;28;20183;-64
2022/08/31 08:23:38;;;;;;;6.20;4.40;;;;;;;24.58;64.71;100588.34;5071716;28;20187;-64
2022/08/31 08:26:10;;;;;;;9.77;4.60;;;;;;;24.60;64.97;100585.88;5070571;28;20630;-64
2022/08/31 08:28:35;;;;;;;7.70;4.90;;;;;;;24.56;65.92;100593.69;5071417;28;20221;-64
2022/08/31 08:31:01;;;;;;;6.27;4.13;;;;;;;24.63;66.11;100598.66;5066300;28;20433;-64
2022/08/31 08:33:27;;;;;;;6.93;4.87;;;;;;;24.35;67.17;100593.72;5080232;28;20618;-64
2022/08/31 08:35:57;;;;;;;7.03;5.33;;;;;;;24.52;67.04;100598.63;5073876;28;20183;-64
2022/08/31 08:38:29;;;;;;;7.00;4.57;;;;;;;24.18;67.38;100603.19;5070664;28;20461;-65
2022/08/31 08:40:55;;;;;;;7.10;4.40;;;;;;;24.14;67.50;100593.69;5072939;28;20468;-65
2022/08/31 08:43:22;;;;;;;9.30;4.93;;;;;;;24.29;66.60;100601.13;5054938;28;20881;-65
2022/08/31 08:45:50;;;;;;;10.07;4.00;;;;;;;24.19;67.17;100610.59;5062510;28;20473;-64
2022/08/31 08:48:16;;;;;;;11.07;4.20;;;;;;;24.23;67.71;100605.66;5060982;28;20430;-64
2022/08/31 08:50:42;;;;;;;5.47;4.00;;;;;;;24.27;67.32;100608.53;5059740;28;20531;-65
2022/08/31 08:53:11;;;;;;;6.53;4.83;;;;;;;24.35;67.83;100608.16;5064509;28;20692;-64
2022/08/31 08:55:38;;;;;;;7.23;4.70;;;;;;;24.47;67.41;100606.88;5070562;28;20557;-67
2022/08/31 08:58:10;;;;;;;7.93;4.50;;;;;;;24.53;67.24;100620.50;5037330;28;20458;-67
2022/08/31 09:00:36;;;;;;;5.67;3.97;;;;;;;24.59;66.90;100623.81;5035711;28;20418;-64
2022/08/31 09:03:13;;;;;;;11.50;4.60;;;;;;;24.61;66.51;100625.06;5064856;28;20440;-65
2022/08/31 09:06:02;;;;;;;6.13;4.47;;;;;;;24.65;66.07;100620.09;5071487;28;20430;-65
2022/08/31 09:08:57;;;;;;;6.47;4.13;;;;;;;24.70;65.75;100618.84;5071370;28;20398;-66
2022/08/31 09:12:07;;;;;;;5.80;4.37;;;;;;;24.69;65.80;100622.97;5072457;28;20455;-65
2022/08/31 09:15:14;;;;;;;5.00;3.93;;;;;;;24.65;66.19;100630.81;5026200;28;20485;-65
2022/08/31 09:18:35;;;;;;;5.50;4.20;;;;;;;24.65;65.93;100623.00;5072261;28;20479;-65
2022/08/31 09:21:01;;;;;;;5.50;3.77;;;;;;;24.68;65.80;100618.47;5033551;28;20731;-65
2022/08/31 09:23:28;;;;;;;9.50;4.67;;;;;;;24.70;65.95;100627.50;5071080;28;20481;-65
2022/08/31 09:25:54;;;;;;;7.23;4.07;;;;;;;24.61;66.71;100630.84;5071042;28;20826;-65
2022/08/31 09:28:34;;;;;;;6.00;4.30;;;;;;;24.63;66.03;100631.22;5070832;28;20401;-66
2022/08/31 09:31:00;;;;;;;8.60;4.70;;;;;;;24.65;66.14;100625.06;5071755;28;20653;-65
2022/08/31 09:33:28;;;;;;;7.40;4.87;;;;;;;24.63;65.91;100625.47;5071965;28;20516;-65
2022/08/31 09:36:18;;;;;;;6.10;4.43;;;;;;;24.60;65.87;100629.19;5066986;28;20205;-65
2022/08/31 09:38:45;;;;;;;5.90;4.70;;;;;;;24.50;66.71;100630.00;5050941;28;20531;-65
2022/08/31 09:41:20;;;;;;;7.70;4.73;;;;;;;24.48;66.29;100626.69;5049938;28;20955;-65
2022/08/31 09:43:46;;;;;;;6.23;4.70;;;;;;;24.48;67.28;100623.78;5070022;28;21649;-65
2022/08/31 09:46:26;;;;;;;8.53;5.43;;;;;;;24.54;66.96;100619.25;5071909;28;20425;-65
2022/08/31 09:48:55;;;;;;;5.87;5.00;;;;;;;24.59;66.39;100621.75;5054592;28;20427;-65
2022/08/31 09:51:23;;;;;;;7.87;5.00;;;;;;;24.57;66.44;100621.31;5071613;28;20425;-65
2022/08/31 09:56:54;;;;;;;5.97;4.47;;;;;;;24.49;66.60;100619.66;5071966;28;20416;-65
2022/08/31 09:59:43;;;;;;;7.83;5.43;;;;;;;24.45;65.73;100615.97;5055905;28;20547;-65
2022/08/31 10:02:21;;;;;;;8.27;5.40;;;;;;;24.45;66.43;100612.25;5048137;28;20418;-65
2022/08/31 10:04:55;;;;;;;8.90;6.00;;;;;;;24.31;66.12;100613.09;5052503;28;20417;-65
2022/08/31 10:07:36;;;;;;;8.87;5.57;;;;;;;24.49;65.96;100611.00;5069422;28;20418;-65
2022/08/31 10:10:18;;;;;;;7.80;5.90;;;;;;;24.42;65.06;100613.91;5070285;28;20393;-65
2022/08/31 10:13:15;;;;;;;9.60;5.80;;;;;;;24.45;66.09;100615.97;5068999;28;20469;-65
2022/08/31 10:15:43;;;;;;;9.13;6.70;;;;;;;24.43;66.41;100617.63;5054663;28;20503;-66
2022/08/31 10:18:38;;;;;;;7.23;6.00;;;;;;;24.42;66.26;100616.78;5053364;28;20456;-65
2022/08/31 10:21:12;;;;;;;7.73;5.90;;;;;;;24.46;66.19;100619.66;5071620;28;21231;-65
2022/08/31 10:23:53;;;;;;;8.57;5.43;;;;;;;24.50;65.35;100612.69;5052627;28;20460;-65
2022/08/31 10:26:30;;;;;;;7.53;5.63;;;;;;;24.51;64.97;100613.47;5070427;28;20453;-65
2022/08/31 10:28:58;;;;;;;10.57;6.40;;;;;;;24.43;64.99;100618.44;5053392;28;20413;-65
2022/08/31 10:31:28;;;;;;;6.97;5.57;;;;;;;24.53;64.75;100622.56;5068873;28;20460;-65
2022/08/31 10:37:37;;;;;;;8.00;6.53;;;;;;;24.51;65.52;100631.63;5055213;28;20424;-66
2022/08/31 10:40:08;;;;;;;8.13;5.87;;;;;;;24.58;65.08;100630.81;5071397;28;20408;-66
2022/08/31 10:42:36;;;;;;;8.30;5.80;;;;;;;24.53;65.02;100623.38;5070803;28;20487;-65
2022/08/31 10:45:21;;;;;;;9.80;6.90;;;;;;;24.41;65.55;100625.84;5053158;28;20977;-65
2022/08/31 10:47:47;;;;;;;9.57;6.70;;;;;;;24.47;65.25;100625.03;5070854;28;20462;-65
2022/08/31 10:50:22;;;;;;;9.93;6.63;;;;;;;24.47;65.12;100624.19;5069372;28;20421;-65
2022/08/31 10:52:47;;;;;;;9.17;7.00;;;;;;;24.42;65.40;100622.56;5054201;28;20436;-65
2022/08/31 10:55:24;;;;;;;8.67;6.63;;;;;;;24.47;65.29;100630.81;5071095;28;20425;-65
2022/08/31 10:57:53;;;;;;;13.80;6.93;;;;;;;24.42;65.76;100631.22;5069611;28;20625;-65
2022/08/31 11:03:41;;;;;;;10.30;6.10;;;;;;;24.23;66.18;100625.88;5055864;28;20513;-65
2022/08/31 11:06:26;;;;;;;9.13;6.07;;;;;;;24.40;65.21;100630.81;5050710;28;20433;-65
2022/08/31 11:09:11;;;;;;;8.60;6.30;;;;;;;24.30;65.51;100625.03;5049586;28;20417;-65
2022/08/31 11:11:40;;;;;;;9.77;6.13;;;;;;;24.33;65.64;100625.03;5064735;28;20436;-65
2022/08/31 11:14:16;;;;;;;9.03;6.03;;;;;;;24.27;65.28;100615.16;5053109;28;20885;-65
2022/08/31 11:17:18;;;;;;;9.37;6.37;;;;;;;24.13;65.60;100623.81;5070799;28;20425;-65
2022/08/31 11:20:07;;;;;;;8.87;6.00;;;;;;;24.25;65.57;100632.06;5070492;28;20507;-66
2022/08/31 11:22:51;;;;;;;6.30;5.33;;;;;;;24.27;65.39;100632.47;5070598;28;20425;-66
2022/08/31 11:25:23;;;;;;;8.30;6.23;;;;;;;24.24;66.35;100629.59;5053866;28;20508;-65
2022/08/31 11:28:09;;;;;;;8.43;5.50;;;;;;;24.26;66.12;100619.28;5064877;28;20458;-66
2022/08/31 11:30:36;;;;;;;7.50;5.33;;;;;;;24.08;65.84;100617.63;5052405;28;20936;-65
2022/08/31 11:33:06;;;;;;;7.60;5.27;;;;;;;24.18;64.55;100617.63;5050365;28;20442;-65
2022/08/31 11:35:48;;;;;;;7.43;5.60;;;;;;;24.22;64.60;100612.69;5052331;28;20432;-65
2022/08/31 11:38:51;;;;;;;8.07;5.00;;;;;;;24.22;64.49;100624.22;5053859;28;20464;-65
2022/08/31 11:41:38;;;;;;;8.83;5.50;;;;;;;24.28;64.12;100616.78;5054267;28;20417;-65
2022/08/31 11:44:06;;;;;;;7.80;5.10;;;;;;;24.19;64.35;100612.69;5054252;28;20406;-65
2022/08/31 11:46:51;;;;;;;8.17;5.70;;;;;;;24.33;63.90;100606.91;5036866;28;20429;-65
2022/08/31 11:49:46;;;;;;;9.63;5.77;;;;;;;24.39;63.84;100608.94;5037584;28;20438;-65